createdAt,value
2023-03-12T00:01:50.002Z,101896.13
2023-03-12T00:04:20.598Z,101896.66
2023-03-12T00:06:51.236Z,101899.69
2023-03-12T00:09:21.882Z,101901.34
2023-03-12T00:11:53.115Z,101882.53
2023-03-12T00:14:25.388Z,101893.84
2023-03-12T00:16:56.712Z,101883.41
2023-03-12T00:19:27.533Z,101877.06
2023-03-12T00:21:58.209Z,101890.91
2023-03-12T00:24:28.846Z,101890.34
2023-03-12T00:26:59.405Z,101897.63
2023-03-12T00:29:31.469Z,101885.63
2023-03-12T00:32:01.956Z,101898.56
2023-03-12T00:34:32.527Z,101890.66
2023-03-12T00:37:03.672Z,101882.34
2023-03-12T00:39:35.558Z,101873.25
2023-03-12T00:42:06.187Z,101861.22
2023-03-12T00:44:38.307Z,101856.38
2023-03-12T00:47:09.353Z,101855.38
2023-03-12T00:49:40.436Z,101866.16
2023-03-12T00:52:11.357Z,101857.59
2023-03-12T00:54:42.003Z,101866.16
2023-03-12T00:57:12.600Z,101854.19
2023-03-12T00:59:47.607Z,101863.13
2023-03-12T01:02:18.176Z,101866.13
2023-03-12T01:04:48.760Z,101877.91
2023-03-12T01:07:19.411Z,101871.47
2023-03-12T01:09:50.052Z,101875.38
2023-03-12T01:12:20.649Z,101882.81
2023-03-12T01:14:52.964Z,101862.28
2023-03-12T01:17:23.640Z,101857.34
2023-03-12T01:19:54.637Z,101833.03
2023-03-12T01:22:25.439Z,101830.09
2023-03-12T01:24:55.958Z,101817.00
2023-03-12T01:27:26.517Z,101805.75
2023-03-12T01:29:59.355Z,101796.34
2023-03-12T01:32:29.868Z,101789.69
2023-03-12T01:35:03.341Z,101791.38
2023-03-12T01:37:35.697Z,101740.03
2023-03-12T01:40:07.124Z,101789.91
2023-03-12T01:42:37.517Z,101792.81
2023-03-12T01:45:25.194Z,101788.34
2023-03-12T01:47:55.807Z,101782.88
2023-03-12T01:50:26.688Z,101763.13
2023-03-12T01:52:59.653Z,101775.22
2023-03-12T01:55:30.265Z,101768.34
2023-03-12T01:58:03.465Z,101765.28
2023-03-12T02:00:35.681Z,101757.56
2023-03-12T02:03:10.253Z,101764.81
2023-03-12T02:05:49.421Z,101762.78
2023-03-12T02:08:21.480Z,101758.59
2023-03-12T02:10:52.403Z,101764.50
2023-03-12T02:13:23.376Z,101747.09
2023-03-12T02:15:55.599Z,101763.03
2023-03-12T02:18:26.607Z,101757.69
2023-03-12T02:21:06.526Z,101771.28
2023-03-12T02:23:42.351Z,101709.09
2023-03-12T02:26:15.310Z,101763.44
2023-03-12T02:28:47.468Z,101774.28
2023-03-12T02:31:21.041Z,101751.16
2023-03-12T02:33:52.473Z,101779.13
2023-03-12T02:36:23.121Z,101779.88
2023-03-12T02:38:54.856Z,101775.94
2023-03-12T02:41:31.893Z,101790.00
2023-03-12T02:44:06.287Z,101800.91
2023-03-12T02:46:39.237Z,101753.72
2023-03-12T02:49:10.397Z,101776.75
2023-03-12T02:51:41.775Z,101761.66
2023-03-12T02:54:14.732Z,101757.25
2023-03-12T02:56:48.508Z,101764.00
2023-03-12T02:59:22.034Z,101755.50
2023-03-12T03:01:57.454Z,101768.28
2023-03-12T03:04:30.034Z,101767.81
2023-03-12T03:07:02.544Z,101754.94
2023-03-12T03:09:36.252Z,101763.41
2023-03-12T03:12:10.114Z,101760.72
2023-03-12T03:14:44.330Z,101742.19
2023-03-12T03:17:16.203Z,101754.84
2023-03-12T03:19:48.416Z,101755.66
2023-03-12T03:22:20.122Z,101742.38
2023-03-12T03:24:51.551Z,101756.50
2023-03-12T03:27:28.241Z,101753.16
2023-03-12T03:29:59.800Z,101729.56
2023-03-12T03:32:31.848Z,101739.19
2023-03-12T03:35:03.444Z,101736.00
2023-03-12T03:37:35.023Z,101727.53
2023-03-12T03:40:13.883Z,101626.75
2023-03-12T03:42:47.924Z,101723.06
2023-03-12T03:45:21.053Z,101709.41
2023-03-12T03:47:53.336Z,101711.28
2023-03-12T03:50:25.154Z,101711.28
2023-03-12T03:52:56.875Z,101672.25
2023-03-12T03:55:28.148Z,101710.50
2023-03-12T03:58:01.462Z,101717.44
2023-03-12T04:00:33.359Z,101714.31
2023-03-12T04:03:05.212Z,101708.97
2023-03-12T04:05:37.377Z,101657.31
2023-03-12T04:08:08.423Z,101706.22
2023-03-12T04:10:40.567Z,101715.22
2023-03-12T04:13:12.803Z,101710.19
2023-03-12T04:15:50.668Z,101708.75
2023-03-12T04:18:21.883Z,101707.78
2023-03-12T04:20:58.702Z,101706.34
2023-03-12T04:23:29.221Z,101699.31
2023-03-12T04:25:59.780Z,101699.31
2023-03-12T04:28:32.395Z,101625.41
2023-03-12T04:31:22.184Z,101693.22
2023-03-12T04:34:16.813Z,101679.75
2023-03-12T04:36:51.188Z,101681.03
2023-03-12T04:39:23.349Z,101673.63
2023-03-12T04:41:55.249Z,101683.13
2023-03-12T04:44:29.389Z,101683.34
2023-03-12T04:47:01.150Z,101680.28
2023-03-12T04:49:32.392Z,101677.03
2023-03-12T04:52:05.807Z,101678.81
2023-03-12T04:54:38.919Z,101677.78
2023-03-12T04:57:10.427Z,101674.94
2023-03-12T04:59:43.760Z,101666.41
2023-03-12T05:02:15.672Z,101666.91
2023-03-12T05:04:47.499Z,101659.22
2023-03-12T05:07:19.225Z,101659.34
2023-03-12T05:09:51.337Z,101656.19
2023-03-12T05:12:22.804Z,101550.06
2023-03-12T05:14:56.384Z,101645.47
2023-03-12T05:17:27.786Z,101653.22
2023-03-12T05:19:59.366Z,101616.31
2023-03-12T05:22:30.984Z,101656.66
2023-03-12T05:25:02.639Z,101650.25
2023-03-12T05:27:34.483Z,101652.53
2023-03-12T05:30:10.280Z,101648.28
2023-03-12T05:32:42.694Z,101646.13
2023-03-12T05:35:15.653Z,101587.41
2023-03-12T05:37:47.883Z,101660.09
2023-03-12T05:40:19.432Z,101664.91
2023-03-12T05:42:50.868Z,101664.59
2023-03-12T05:45:24.151Z,101678.97
2023-03-12T05:47:58.373Z,101664.69
2023-03-12T05:50:30.814Z,101659.16
2023-03-12T05:53:02.396Z,101660.06
2023-03-12T05:55:39.208Z,101651.53
2023-03-12T05:58:12.095Z,101595.31
2023-03-12T06:00:45.981Z,101658.19
2023-03-12T06:03:17.515Z,101652.63
2023-03-12T06:05:49.361Z,101665.38
2023-03-12T06:08:20.800Z,101662.13
2023-03-12T06:10:59.783Z,101666.28
2023-03-12T06:13:32.405Z,101665.53
2023-03-12T06:16:11.142Z,101670.81
2023-03-12T06:18:42.538Z,101668.50
2023-03-12T06:21:18.006Z,101668.50
2023-03-12T06:23:49.815Z,101666.88
2023-03-12T06:26:23.106Z,101662.13
2023-03-12T06:28:57.881Z,101662.56
2023-03-12T06:31:31.613Z,101658.91
2023-03-12T06:34:03.614Z,101659.06
2023-03-12T06:36:35.534Z,101661.50
2023-03-12T06:39:10.344Z,101658.91
2023-03-12T06:41:42.683Z,101618.25
2023-03-12T06:44:14.132Z,101655.25
2023-03-12T06:46:47.490Z,101646.56
2023-03-12T06:49:19.109Z,101651.91
2023-03-12T06:51:51.195Z,101637.09
2023-03-12T06:54:22.360Z,101639.28
2023-03-12T06:56:54.217Z,101537.09
2023-03-12T06:59:26.232Z,101628.81
2023-03-12T07:01:58.428Z,101628.13
2023-03-12T07:04:28.958Z,101624.59
2023-03-12T07:06:59.393Z,101622.59
2023-03-12T07:09:30.059Z,101634.50
2023-03-12T07:12:00.564Z,101627.44
2023-03-12T07:14:31.045Z,101636.38
2023-03-12T07:17:03.612Z,101626.63
2023-03-12T07:19:34.168Z,101625.00
2023-03-12T07:22:04.979Z,101607.78
2023-03-12T07:24:36.507Z,101620.25
2023-03-12T07:27:07.097Z,101623.69
2023-03-12T07:29:37.584Z,101615.84
2023-03-12T07:32:09.971Z,101611.44
2023-03-12T07:34:40.583Z,101627.84
2023-03-12T07:37:11.080Z,101619.50
2023-03-12T07:39:41.787Z,101620.38
2023-03-12T07:42:13.973Z,101615.53
2023-03-12T07:44:44.510Z,101619.06
2023-03-12T07:47:23.677Z,101611.88
2023-03-12T07:49:54.923Z,101615.25
2023-03-12T07:52:25.615Z,101616.88
2023-03-12T07:54:57.345Z,101615.97
2023-03-12T07:57:27.882Z,101608.09
2023-03-12T07:59:58.438Z,101610.16
2023-03-12T08:02:31.200Z,101609.06
2023-03-12T08:05:01.953Z,101602.81
2023-03-12T08:07:44.069Z,101603.88
2023-03-12T08:10:20.873Z,101575.25
2023-03-12T08:13:05.876Z,101589.34
2023-03-12T08:15:36.923Z,101564.13
2023-03-12T08:18:14.392Z,101603.16
2023-03-12T08:20:45.233Z,101588.34
2023-03-12T08:23:17.372Z,101586.41
2023-03-12T08:25:49.877Z,101573.81
2023-03-12T08:28:22.666Z,101578.34
2023-03-12T08:30:55.936Z,101574.13
2023-03-12T08:33:31.729Z,101572.47
2023-03-12T08:36:03.271Z,101558.53
2023-03-12T08:38:35.616Z,101566.53
2023-03-12T08:41:07.198Z,101562.19
2023-03-12T08:43:41.321Z,101562.38
2023-03-12T08:46:12.924Z,101554.72
2023-03-12T08:48:47.639Z,101552.09
2023-03-12T08:51:19.443Z,101544.72
2023-03-12T08:53:51.131Z,101526.97
2023-03-12T08:56:22.554Z,101554.88
2023-03-12T08:58:54.255Z,101526.69
2023-03-12T09:01:25.733Z,101556.28
2023-03-12T09:03:58.952Z,101547.53
2023-03-12T09:06:30.405Z,101544.31
2023-03-12T09:09:10.124Z,101540.66
2023-03-12T09:11:42.791Z,101542.41
2023-03-12T09:17:06.166Z,101534.53
2023-03-12T09:19:39.425Z,101552.81
2023-03-12T09:22:11.039Z,101544.31
2023-03-12T09:24:42.761Z,101451.13
2023-03-12T09:27:14.134Z,101542.53
2023-03-12T09:29:58.882Z,101544.38
2023-03-12T09:32:31.523Z,101507.03
2023-03-12T09:35:07.705Z,101528.59
2023-03-12T09:37:41.722Z,101532.13
2023-03-12T09:40:27.105Z,101523.44
2023-03-12T09:43:01.858Z,101518.03
2023-03-12T09:45:36.205Z,101512.03
2023-03-12T09:48:09.444Z,101481.50
2023-03-12T09:50:44.965Z,101509.94
2023-03-12T09:53:25.380Z,101463.16
2023-03-12T09:55:59.351Z,101475.78
2023-03-12T09:58:33.530Z,101500.56
2023-03-12T10:01:16.217Z,101504.69
2023-03-12T10:04:21.581Z,101500.44
2023-03-12T10:07:00.241Z,101507.03
2023-03-12T10:09:49.001Z,101507.81
2023-03-12T10:12:30.668Z,101512.75
2023-03-12T10:15:20.489Z,101498.66
2023-03-12T10:18:04.472Z,101494.84
2023-03-12T10:20:56.290Z,101409.69
2023-03-12T10:23:41.631Z,101494.94
2023-03-12T10:26:18.586Z,101488.09
2023-03-12T10:28:54.361Z,101460.66
2023-03-12T10:31:30.993Z,101484.13
2023-03-12T10:34:03.622Z,101468.00
2023-03-12T10:36:41.511Z,101468.31
2023-03-12T10:39:19.137Z,101461.56
2023-03-12T10:41:54.321Z,101446.66
2023-03-12T10:44:27.602Z,101459.78
2023-03-12T10:47:11.722Z,101382.19
2023-03-12T10:50:16.100Z,101453.31
2023-03-12T10:52:48.425Z,101444.50
2023-03-12T10:55:28.617Z,101428.09
2023-03-12T10:58:00.854Z,101452.16
2023-03-12T11:00:33.959Z,101447.00
2023-03-12T11:03:06.876Z,101416.97
2023-03-12T11:05:40.139Z,101411.53
2023-03-12T11:08:24.863Z,101444.09
2023-03-12T11:10:59.426Z,101351.88
2023-03-12T11:13:34.427Z,101423.31
2023-03-12T11:16:06.932Z,101418.41
2023-03-12T11:18:39.770Z,101325.03
2023-03-12T11:21:20.223Z,101394.19
2023-03-12T11:24:09.379Z,101400.63
2023-03-12T11:26:53.500Z,101359.56
2023-03-12T11:29:32.482Z,101388.00
2023-03-12T11:32:09.175Z,101399.28
2023-03-12T11:34:43.089Z,101358.34
2023-03-12T11:37:22.267Z,101375.69
2023-03-12T11:40:17.775Z,101365.28
2023-03-12T11:43:42.123Z,101393.66
2023-03-12T11:46:32.985Z,101387.56
2023-03-12T11:49:19.165Z,101387.81
2023-03-12T11:51:57.174Z,101392.19
2023-03-12T11:55:14.340Z,101386.09
2023-03-12T11:58:09.133Z,101317.25
2023-03-12T12:00:48.105Z,101366.59
2023-03-12T12:03:41.928Z,101394.88
2023-03-12T12:06:19.645Z,101386.72
2023-03-12T12:09:17.334Z,101383.13
2023-03-12T12:11:59.258Z,101371.22
2023-03-12T12:14:48.131Z,101369.47
2023-03-12T12:17:31.267Z,101322.47
2023-03-12T12:20:19.684Z,101361.06
2023-03-12T12:23:02.936Z,101347.13
2023-03-12T12:25:49.445Z,101361.31
2023-03-12T12:29:07.810Z,101356.06
2023-03-12T12:31:47.658Z,101354.13
2023-03-12T12:34:51.396Z,101337.00
2023-03-12T12:37:47.658Z,101342.81
2023-03-12T12:40:24.554Z,101337.94
2023-03-12T12:43:04.614Z,101322.16
2023-03-12T12:45:35.544Z,101322.59
2023-03-12T12:48:13.394Z,101260.22
2023-03-12T12:50:45.485Z,101301.31
2023-03-12T12:53:24.703Z,101308.22
2023-03-12T12:56:09.488Z,101295.69
2023-03-12T12:59:07.987Z,101289.69
2023-03-12T13:01:40.882Z,101297.28
2023-03-12T13:04:18.784Z,101304.41
2023-03-12T13:07:02.010Z,101299.44
2023-03-12T13:09:41.970Z,101288.75
2023-03-12T13:12:24.689Z,101276.00
2023-03-12T13:14:58.180Z,101287.69
2023-03-12T13:17:32.267Z,101285.78
2023-03-12T13:20:21.816Z,101296.31
2023-03-12T13:23:05.689Z,101296.84
2023-03-12T13:26:07.305Z,101299.50
2023-03-12T13:29:11.465Z,101271.97
2023-03-12T13:31:45.995Z,101286.38
2023-03-12T13:34:49.469Z,101311.88
2023-03-12T13:37:59.810Z,101315.53
2023-03-12T13:41:01.892Z,101266.59
2023-03-12T13:43:55.494Z,101304.97
2023-03-12T13:46:40.927Z,101313.91
2023-03-12T13:49:20.777Z,101310.50
2023-03-12T13:52:03.163Z,101295.09
2023-03-12T13:54:42.776Z,101307.66
2023-03-12T13:57:33.296Z,101281.59
2023-03-12T14:00:07.746Z,101289.44
2023-03-12T14:02:47.937Z,101209.69
2023-03-12T14:05:21.263Z,101264.41
2023-03-12T14:08:06.059Z,101253.47
2023-03-12T14:10:54.618Z,101250.91
2023-03-12T14:13:41.022Z,101247.66
2023-03-12T14:16:23.965Z,101228.59
2023-03-12T14:18:56.382Z,101214.66
2023-03-12T14:21:30.811Z,101207.53
2023-03-12T14:24:06.168Z,101216.16
2023-03-12T14:26:40.018Z,101203.53
2023-03-12T14:29:22.621Z,101185.09
2023-03-12T14:31:55.551Z,101197.13
2023-03-12T14:34:29.496Z,101178.06
2023-03-12T14:37:06.959Z,101165.78
2023-03-12T14:39:44.989Z,101160.09
2023-03-12T14:42:27.177Z,101128.69
2023-03-12T14:45:02.964Z,101080.88
2023-03-12T14:47:42.507Z,101125.34
2023-03-12T14:50:21.860Z,101130.72
2023-03-12T14:52:53.391Z,101111.50
2023-03-12T14:55:27.230Z,101100.84
2023-03-12T14:58:20.061Z,101104.44
2023-03-12T15:01:01.842Z,101096.19
2023-03-12T15:03:34.902Z,101086.44
2023-03-12T15:06:06.470Z,101094.50
2023-03-12T15:08:42.935Z,101090.84
2023-03-12T15:11:14.937Z,101064.38
2023-03-12T15:13:46.414Z,101083.53
2023-03-12T15:16:20.443Z,101061.72
2023-03-12T15:18:52.549Z,101072.84
2023-03-12T15:21:25.253Z,101061.59
2023-03-12T15:23:56.958Z,101057.47
2023-03-12T15:26:34.309Z,101060.19
2023-03-12T15:29:07.433Z,101051.03
2023-03-12T15:31:49.043Z,101042.00
2023-03-12T15:34:33.375Z,101039.50
2023-03-12T15:37:06.797Z,101028.69
2023-03-12T15:39:40.928Z,100990.06
2023-03-12T15:42:18.731Z,101033.81
2023-03-12T15:44:52.343Z,101040.81
2023-03-12T15:47:27.462Z,101014.94
2023-03-12T15:50:01.143Z,101025.59
2023-03-12T15:52:35.256Z,101023.25
2023-03-12T15:55:22.830Z,101032.97
2023-03-12T15:57:58.402Z,100991.00
2023-03-12T16:00:31.973Z,101031.88
2023-03-12T16:03:07.290Z,101032.16
2023-03-12T16:05:40.822Z,101007.63
2023-03-12T16:08:19.751Z,101003.78
2023-03-12T16:10:52.136Z,101028.59
2023-03-12T16:13:27.668Z,101005.69
2023-03-12T16:15:59.307Z,101000.69
2023-03-12T16:18:32.539Z,101007.38
2023-03-12T16:21:04.106Z,100979.31
2023-03-12T16:23:35.788Z,101000.81
2023-03-12T16:26:08.702Z,100996.38
2023-03-12T16:28:40.524Z,100983.28
2023-03-12T16:31:16.321Z,100988.84
2023-03-12T16:33:49.697Z,100991.06
2023-03-12T16:36:22.216Z,100944.84
2023-03-12T16:38:53.776Z,100978.47
2023-03-12T16:41:25.241Z,100974.09
2023-03-12T16:43:56.877Z,100959.88
2023-03-12T16:46:34.840Z,100961.44
2023-03-12T16:49:08.182Z,100850.31
2023-03-12T16:51:40.412Z,100976.09
2023-03-12T16:54:12.375Z,100887.06
2023-03-12T16:56:47.375Z,100962.00
2023-03-12T16:59:26.317Z,100939.88
2023-03-12T17:02:00.690Z,100961.94
2023-03-12T17:04:33.951Z,100966.34
2023-03-12T17:07:14.018Z,100972.41
2023-03-12T17:09:47.355Z,100966.97
2023-03-12T17:12:28.362Z,100931.34
2023-03-12T17:15:01.510Z,100924.41
2023-03-12T17:17:33.062Z,100931.91
2023-03-12T17:20:09.306Z,100925.84
2023-03-12T17:22:41.143Z,100901.22
2023-03-12T17:26:28.498Z,100872.03
2023-03-12T17:29:00.382Z,100851.88
2023-03-12T17:31:35.056Z,100840.78
2023-03-12T17:42:41.392Z,100843.75
2023-03-12T17:46:17.588Z,100849.72
2023-03-12T17:48:50.803Z,100855.56
2023-03-12T17:49:50.340Z,100832.16
2023-03-12T17:51:22.882Z,100842.28
2023-03-12T17:53:54.383Z,100840.69
2023-03-12T17:56:25.804Z,100843.03
2023-03-12T17:58:58.189Z,100796.28
2023-03-12T18:01:29.590Z,100870.78
2023-03-12T18:04:02.650Z,100861.94
2023-03-12T18:06:34.505Z,100848.41
2023-03-12T18:09:06.007Z,100837.03
2023-03-12T18:11:37.615Z,100831.56
2023-03-12T18:14:20.859Z,100834.47
2023-03-12T18:16:52.449Z,100814.09
2023-03-12T18:19:25.623Z,100813.94
2023-03-12T18:21:57.258Z,100806.00
2023-03-12T18:24:28.681Z,100817.72
2023-03-12T18:27:00.496Z,100821.28
2023-03-12T18:29:32.159Z,100815.53
2023-03-12T18:32:03.666Z,100807.06
2023-03-12T18:34:36.897Z,100795.38
2023-03-12T18:37:08.326Z,100787.06
2023-03-12T18:39:39.779Z,100798.03
2023-03-12T18:42:11.309Z,100789.78
2023-03-12T18:44:42.839Z,100780.91
2023-03-12T18:47:14.267Z,100786.47
2023-03-12T18:49:47.541Z,100793.88
2023-03-12T18:52:19.064Z,100791.75
2023-03-12T18:54:53.364Z,100774.09
2023-03-12T18:57:24.843Z,100769.53
2023-03-12T18:59:56.938Z,100726.03
2023-03-12T19:02:28.470Z,100718.91
2023-03-12T19:05:04.824Z,100733.19
2023-03-12T19:07:39.095Z,100733.75
2023-03-12T19:10:12.032Z,100745.97
2023-03-12T19:12:52.795Z,100755.28
2023-03-12T19:15:26.435Z,100680.25
2023-03-12T19:17:57.099Z,100719.09
2023-03-12T19:20:32.121Z,100682.41
2023-03-12T19:23:02.740Z,100716.53
2023-03-12T19:25:33.715Z,100718.75
2023-03-12T19:28:05.333Z,100727.69
2023-03-12T19:30:38.884Z,100661.59
2023-03-12T19:33:09.725Z,100697.22
2023-03-12T19:35:44.025Z,100685.09
2023-03-12T19:38:14.610Z,100699.81
2023-03-12T19:40:54.247Z,100668.47
2023-03-12T19:43:26.411Z,100684.44
2023-03-12T19:46:00.001Z,100678.06
2023-03-12T19:48:33.038Z,100684.97
2023-03-12T19:51:14.229Z,100678.81
2023-03-12T19:53:49.771Z,100675.91
2023-03-12T19:56:21.989Z,100665.22
2023-03-12T19:58:59.851Z,100660.25
2023-03-12T20:01:30.258Z,100659.59
2023-03-12T20:04:00.833Z,100671.59
2023-03-12T20:06:32.934Z,100662.81
2023-03-12T20:09:03.530Z,100557.84
2023-03-12T20:11:34.429Z,100651.47
2023-03-12T20:14:05.003Z,100649.22
2023-03-12T20:16:35.526Z,100645.34
2023-03-12T20:19:06.201Z,100657.78
2023-03-12T20:21:38.312Z,100641.50
2023-03-12T20:24:09.102Z,100634.50
2023-03-12T20:26:40.527Z,100634.22
2023-03-12T20:29:11.041Z,100627.34
2023-03-12T20:31:41.502Z,100616.59
2023-03-12T20:34:12.030Z,100624.84
2023-03-12T20:36:44.308Z,100609.16
2023-03-12T20:39:15.112Z,100611.00
2023-03-12T20:41:45.657Z,100613.75
2023-03-12T20:44:16.188Z,100616.50
2023-03-12T20:46:46.750Z,100597.88
2023-03-12T20:49:17.883Z,100611.19
2023-03-12T20:51:50.142Z,100553.56
2023-03-12T20:54:20.733Z,100593.63
2023-03-12T20:56:51.440Z,100525.63
2023-03-12T20:59:22.207Z,100580.28
2023-03-12T21:01:52.831Z,100575.41
2023-03-12T21:04:23.576Z,100561.47
2023-03-12T21:06:56.822Z,100561.09
2023-03-12T21:09:27.477Z,100562.81
2023-03-12T21:11:58.044Z,100552.00
2023-03-12T21:14:28.794Z,100537.22
2023-03-12T21:16:59.708Z,100525.03
2023-03-12T21:19:32.560Z,100533.25
2023-03-12T21:22:04.831Z,100527.47
2023-03-12T21:24:40.265Z,100511.22
2023-03-12T21:27:12.798Z,100519.31
2023-03-12T21:29:43.509Z,100498.56
2023-03-12T21:32:14.183Z,100515.00
2023-03-12T21:34:44.735Z,100508.13
2023-03-12T21:37:17.133Z,100464.72
2023-03-12T21:39:47.839Z,100510.06
2023-03-12T21:42:18.424Z,100494.88
2023-03-12T21:44:51.840Z,100489.94
2023-03-12T21:47:22.477Z,100478.88
2023-03-12T21:49:53.323Z,100466.09
2023-03-12T21:52:25.700Z,100478.59
2023-03-12T21:54:56.416Z,100460.94
2023-03-12T21:57:27.085Z,100459.69
2023-03-12T21:59:57.726Z,100464.34
2023-03-12T22:02:30.375Z,100449.44
2023-03-12T22:05:02.928Z,100448.16
2023-03-12T22:07:35.283Z,100434.72
2023-03-12T22:10:06.588Z,100450.66
2023-03-12T22:12:37.346Z,100437.13
2023-03-12T22:15:09.244Z,100433.94
2023-03-12T22:17:39.963Z,100401.00
2023-03-12T22:20:12.133Z,100411.47
2023-03-12T22:22:44.440Z,100365.00
2023-03-12T22:25:15.065Z,100419.31
2023-03-12T22:27:45.698Z,100345.84
2023-03-12T22:30:16.982Z,100409.28
2023-03-12T22:32:47.690Z,100414.22
2023-03-12T22:35:18.519Z,100409.72
2023-03-12T22:37:50.738Z,100402.28
2023-03-12T22:40:21.557Z,100404.06
2023-03-12T22:42:57.071Z,100388.16
2023-03-12T22:45:27.716Z,100381.63
2023-03-12T22:47:58.372Z,100375.09
2023-03-12T22:50:29.113Z,100356.38
2023-03-12T22:53:02.188Z,100371.28
2023-03-12T22:55:32.813Z,100372.38
2023-03-12T22:58:03.415Z,100351.66
2023-03-12T23:00:34.036Z,100361.25
2023-03-12T23:03:04.687Z,100354.34
2023-03-12T23:05:35.415Z,100351.72
2023-03-12T23:08:08.347Z,100313.63
2023-03-12T23:10:38.995Z,100363.06
2023-03-12T23:13:10.290Z,100361.41
2023-03-12T23:15:41.938Z,100351.94
2023-03-12T23:18:12.728Z,100347.63
2023-03-12T23:20:43.700Z,100365.84
2023-03-12T23:23:18.108Z,100371.88
2023-03-12T23:25:56.169Z,100355.47
2023-03-12T23:28:27.170Z,100272.38
2023-03-12T23:30:59.279Z,100345.03
2023-03-12T23:33:31.551Z,100246.38
2023-03-12T23:36:04.507Z,100334.69
2023-03-12T23:38:37.651Z,100334.66
2023-03-12T23:41:10.167Z,100338.09
2023-03-12T23:43:40.949Z,100345.03
2023-03-12T23:46:13.173Z,100350.22
2023-03-12T23:48:44.294Z,100334.63
2023-03-12T23:51:16.035Z,100343.28
2023-03-12T23:53:50.762Z,100350.25
2023-03-12T23:56:23.894Z,100338.09
2023-03-12T23:58:54.963Z,100338.97
